Time;durP1;ratioP1;P1;durP2;ratioP2;P2;SDS_P1;SDS_P2;PMS_P1;PMS_P2;Temp;Humidity;BMP_temperature;BMP_pressure;BME280_temperature;BME280_humidity;BME280_pressure;Samples;Min_cycle;Max_cycle;Signal;HPM_P1;HPM_P2
2022/09/23 00:01:08;;;;;;;;;11.00;9.25;;;;;;;;5103389;27;62025;-77
2022/09/23 00:03:35;;;;;;;;;13.25;10.25;;;;;;;;5104348;27;61907;-77
2022/09/23 00:06:01;;;;;;;;;12.75;10.75;;;;;;;;5104857;27;61738;-77
2022/09/23 00:08:27;;;;;;;;;11.25;10.25;;;;;;;;5101886;27;64062;-77
2022/09/23 00:10:53;;;;;;;;;12.50;7.75;;;;;;;;5103082;27;61843;-77
2022/09/23 00:13:18;;;;;;;;;8.25;7.50;;;;;;;;5103442;27;61997;-77
2022/09/23 00:15:45;;;;;;;;;10.75;8.00;;;;;;;;5104476;27;61909;-77
2022/09/23 00:18:10;;;;;;;;;8.75;6.50;;;;;;;;5103830;27;61821;-77
2022/09/23 00:20:36;;;;;;;;;10.00;8.00;;;;;;;;5102839;27;61753;-77
2022/09/23 00:23:01;;;;;;;;;9.50;8.50;;;;;;;;5104135;27;61814;-77
2022/09/23 00:25:28;;;;;;;;;6.75;6.25;;;;;;;;5102736;27;61890;-77
2022/09/23 00:27:54;;;;;;;;;9.00;9.00;;;;;;;;5102324;27;64628;-77
2022/09/23 00:30:19;;;;;;;;;11.00;9.50;;;;;;;;5103443;27;61910;-77
2022/09/23 00:32:44;;;;;;;;;9.00;9.00;;;;;;;;5102633;27;62046;-76
2022/09/23 00:35:09;;;;;;;;;11.50;10.00;;;;;;;;5103136;27;61838;-77
2022/09/23 00:37:35;;;;;;;;;12.50;11.00;;;;;;;;5101908;27;64119;-77
2022/09/23 00:40:00;;;;;;;;;11.75;10.00;;;;;;;;5103513;27;61834;-77
2022/09/23 00:42:26;;;;;;;;;19.75;9.75;;;;;;;;5102750;27;62155;-77
2022/09/23 00:44:53;;;;;;;;;9.00;9.00;;;;;;;;5104130;27;61888;-77
2022/09/23 00:47:44;;;;;;;;;14.00;10.00;;;;;;;;5103448;27;61987;-77
2022/09/23 00:50:32;;;;;;;;;10.75;9.00;;;;;;;;5100044;27;61881;-77
2022/09/23 00:52:59;;;;;;;;;15.00;13.50;;;;;;;;5103615;27;61784;-77
2022/09/23 00:55:38;;;;;;;;;16.00;14.00;;;;;;;;5101203;27;62163;-77
2022/09/23 00:58:06;;;;;;;;;13.75;9.50;;;;;;;;5101559;27;61889;-77
2022/09/23 01:00:32;;;;;;;;;10.75;10.75;;;;;;;;5102491;27;62083;-77
2022/09/23 01:02:58;;;;;;;;;18.25;11.50;;;;;;;;5100841;27;61802;-77
2022/09/23 01:05:24;;;;;;;;;18.50;13.50;;;;;;;;5102388;27;62065;-77
2022/09/23 01:07:49;;;;;;;;;17.25;14.50;;;;;;;;5101200;27;61943;-77
2022/09/23 01:10:15;;;;;;;;;18.75;14.00;;;;;;;;5100638;27;61732;-77
2022/09/23 01:12:59;;;;;;;;;13.00;10.75;;;;;;;;5100694;27;62094;-77
2022/09/23 01:15:34;;;;;;;;;15.00;13.50;;;;;;;;5100938;27;61908;-77
2022/09/23 01:18:18;;;;;;;;;16.50;15.25;;;;;;;;5099752;27;65175;-77
2022/09/23 01:20:55;;;;;;;;;14.25;11.75;;;;;;;;5101509;27;61712;-77
2022/09/23 01:23:39;;;;;;;;;12.75;12.00;;;;;;;;5101574;27;61793;-77
2022/09/23 01:26:04;;;;;;;;;15.00;12.75;;;;;;;;5102170;27;61810;-77
2022/09/23 01:28:41;;;;;;;;;11.00;11.00;;;;;;;;5101280;27;62098;-77
2022/09/23 01:31:25;;;;;;;;;17.75;15.00;;;;;;;;5101755;27;61865;-77
2022/09/23 01:33:54;;;;;;;;;17.00;15.75;;;;;;;;5100092;27;61988;-77
2022/09/23 01:36:28;;;;;;;;;12.25;12.25;;;;;;;;5101963;27;61963;-77
2022/09/23 01:38:57;;;;;;;;;15.00;13.25;;;;;;;;5099329;27;64854;-77
2022/09/23 01:41:32;;;;;;;;;9.00;7.25;;;;;;;;5099992;27;61726;-77
2022/09/23 01:44:00;;;;;;;;;15.50;13.00;;;;;;;;5099930;27;61733;-77
2022/09/23 01:46:31;;;;;;;;;14.25;13.00;;;;;;;;5101975;27;62124;-77
2022/09/23 01:49:01;;;;;;;;;13.00;10.75;;;;;;;;5100451;27;62171;-77
2022/09/23 01:51:30;;;;;;;;;12.25;9.75;;;;;;;;5100050;27;61990;-77
2022/09/23 01:54:05;;;;;;;;;14.25;10.00;;;;;;;;5099504;27;62344;-77
2022/09/23 01:56:51;;;;;;;;;13.00;12.00;;;;;;;;5058610;27;1208761;-77
2022/09/23 01:59:20;;;;;;;;;12.25;11.50;;;;;;;;5100955;27;64932;-77
2022/09/23 02:02:04;;;;;;;;;18.00;12.00;;;;;;;;5103056;27;61861;-77
2022/09/23 02:04:39;;;;;;;;;15.75;13.00;;;;;;;;5102986;27;61854;-77
2022/09/23 02:07:26;;;;;;;;;14.75;13.25;;;;;;;;5103171;27;61991;-77
2022/09/23 02:09:56;;;;;;;;;10.00;10.00;;;;;;;;5099940;27;63990;-77
2022/09/23 02:12:23;;;;;;;;;11.50;10.00;;;;;;;;5102911;27;61690;-77
2022/09/23 02:14:56;;;;;;;;;15.00;12.00;;;;;;;;5102984;27;61769;-77
2022/09/23 02:17:29;;;;;;;;;16.75;14.75;;;;;;;;5101350;27;62101;-77
2022/09/23 02:20:00;;;;;;;;;12.75;11.50;;;;;;;;5102075;27;63792;-77
2022/09/23 02:22:44;;;;;;;;;10.25;10.25;;;;;;;;5102577;27;62124;-77
2022/09/23 02:25:11;;;;;;;;;15.75;12.75;;;;;;;;5102276;27;61841;-77
2022/09/23 02:27:39;;;;;;;;;18.25;13.25;;;;;;;;5102870;27;62051;-77
2022/09/23 02:30:13;;;;;;;;;13.00;10.25;;;;;;;;5101703;27;63201;-77
2022/09/23 02:32:41;;;;;;;;;14.00;14.00;;;;;;;;5100933;27;62007;-77
2022/09/23 02:35:24;;;;;;;;;13.25;11.75;;;;;;;;5102480;27;61801;-77
2022/09/23 02:37:51;;;;;;;;;15.50;11.75;;;;;;;;5102659;27;62061;-77
2022/09/23 02:40:37;;;;;;;;;12.00;10.00;;;;;;;;5101443;27;61852;-77
2022/09/23 02:43:19;;;;;;;;;11.75;10.00;;;;;;;;5102015;27;62295;-77
2022/09/23 02:45:45;;;;;;;;;10.00;10.00;;;;;;;;5102486;27;61949;-77
2022/09/23 02:48:32;;;;;;;;;17.00;14.75;;;;;;;;5100721;27;61827;-77
2022/09/23 02:51:01;;;;;;;;;12.00;10.00;;;;;;;;5101786;27;61733;-77
2022/09/23 02:53:26;;;;;;;;;14.25;10.00;;;;;;;;5101851;27;62171;-77
2022/09/23 02:55:51;;;;;;;;;13.00;9.25;;;;;;;;5105810;27;62116;-77
2022/09/23 02:58:17;;;;;;;;;13.25;10.50;;;;;;;;5104144;27;61860;-77
2022/09/23 03:00:53;;;;;;;;;11.75;9.50;;;;;;;;5103589;27;64020;-77
2022/09/23 03:03:19;;;;;;;;;13.75;11.50;;;;;;;;5105451;27;61666;-77
2022/09/23 03:05:48;;;;;;;;;11.50;11.00;;;;;;;;5105671;27;62028;-77
2022/09/23 03:08:15;;;;;;;;;12.25;10.75;;;;;;;;5105474;27;61834;-77
2022/09/23 03:10:56;;;;;;;;;15.25;12.75;;;;;;;;5103476;27;64015;-77
2022/09/23 03:13:21;;;;;;;;;13.25;10.25;;;;;;;;5103886;27;61784;-77
2022/09/23 03:16:09;;;;;;;;;14.75;10.25;;;;;;;;5104083;27;61943;-76
2022/09/23 03:18:49;;;;;;;;;15.00;9.75;;;;;;;;5103963;27;61946;-77
2022/09/23 03:21:24;;;;;;;;;10.75;9.75;;;;;;;;5103504;27;63734;-77
2022/09/23 03:23:49;;;;;;;;;13.25;11.75;;;;;;;;5103638;27;61813;-77
2022/09/23 03:26:20;;;;;;;;;11.25;9.75;;;;;;;;5105261;27;61851;-77
2022/09/23 03:28:46;;;;;;;;;10.00;10.00;;;;;;;;5103832;27;62053;-77
2022/09/23 03:31:12;;;;;;;;;13.25;10.25;;;;;;;;5104555;27;61800;-77
2022/09/23 03:33:39;;;;;;;;;14.00;10.75;;;;;;;;5103804;27;62375;-77
2022/09/23 03:38:53;;;;;;;;;13.00;11.75;;;;;;;;5104775;27;61718;-77
2022/09/23 03:41:22;;;;;;;;;14.00;11.25;;;;;;;;5104284;27;61954;-77
2022/09/23 03:43:47;;;;;;;;;15.00;11.00;;;;;;;;5104912;27;61970;-77
2022/09/23 03:46:17;;;;;;;;;9.50;8.25;;;;;;;;5105134;27;61776;-77
2022/09/23 03:48:44;;;;;;;;;16.25;11.75;;;;;;;;5104878;27;61964;-77
2022/09/23 03:51:20;;;;;;;;;12.50;10.50;;;;;;;;5104545;27;61835;-77
2022/09/23 03:53:47;;;;;;;;;10.75;9.50;;;;;;;;5104232;27;62222;-77
2022/09/23 03:56:12;;;;;;;;;13.25;11.00;;;;;;;;5104661;27;62589;-77
2022/09/23 03:58:37;;;;;;;;;12.50;11.75;;;;;;;;5104559;27;62233;-77
2022/09/23 04:01:03;;;;;;;;;17.00;11.25;;;;;;;;5102940;27;63581;-77
2022/09/23 04:03:28;;;;;;;;;14.50;13.00;;;;;;;;5104312;27;61947;-77
2022/09/23 04:05:53;;;;;;;;;12.00;11.00;;;;;;;;5103678;27;61749;-77
2022/09/23 04:08:19;;;;;;;;;14.50;11.00;;;;;;;;5103149;27;62128;-77
2022/09/23 04:10:44;;;;;;;;;15.75;13.50;;;;;;;;5101912;27;63582;-77
2022/09/23 04:13:09;;;;;;;;;12.75;12.25;;;;;;;;5103026;27;61976;-77
2022/09/23 04:15:34;;;;;;;;;17.25;16.50;;;;;;;;5103150;27;61734;-77
2022/09/23 04:18:00;;;;;;;;;14.00;11.00;;;;;;;;5104629;27;62230;-77
2022/09/23 04:20:27;;;;;;;;;14.50;14.50;;;;;;;;5103699;27;62842;-76
2022/09/23 04:22:52;;;;;;;;;15.75;13.25;;;;;;;;5103012;27;62409;-77
2022/09/23 04:25:18;;;;;;;;;17.50;15.75;;;;;;;;5103746;27;61925;-77
2022/09/23 04:27:43;;;;;;;;;21.50;13.50;;;;;;;;5102930;27;62267;-77
2022/09/23 04:30:08;;;;;;;;;15.00;12.25;;;;;;;;5102114;27;63942;-77
2022/09/23 04:32:34;;;;;;;;;12.50;10.75;;;;;;;;5102856;27;61863;-77
2022/09/23 04:34:59;;;;;;;;;16.00;12.00;;;;;;;;5102958;27;61946;-77
2022/09/23 04:37:24;;;;;;;;;12.25;10.50;;;;;;;;5104292;27;62122;-77
2022/09/23 04:39:49;;;;;;;;;16.25;12.75;;;;;;;;5101824;27;63877;-77
2022/09/23 04:42:15;;;;;;;;;16.25;13.25;;;;;;;;5102669;27;61872;-77
2022/09/23 04:44:40;;;;;;;;;21.50;14.75;;;;;;;;5103901;27;61884;-77
2022/09/23 04:47:05;;;;;;;;;16.00;16.00;;;;;;;;5102913;27;62110;-77
2022/09/23 04:49:32;;;;;;;;;16.50;12.25;;;;;;;;5101694;27;63666;-77
2022/09/23 04:51:57;;;;;;;;;15.00;13.50;;;;;;;;5102618;27;61721;-77
2022/09/23 04:54:22;;;;;;;;;17.75;12.25;;;;;;;;5101690;27;62024;-77
2022/09/23 04:56:47;;;;;;;;;18.75;13.75;;;;;;;;5103427;27;61807;-77
2022/09/23 04:59:13;;;;;;;;;20.75;15.50;;;;;;;;5101896;27;63634;-77
2022/09/23 05:01:38;;;;;;;;;21.50;17.00;;;;;;;;5103702;27;61799;-77
2022/09/23 05:04:05;;;;;;;;;20.00;18.00;;;;;;;;5103831;27;61827;-76
2022/09/23 05:06:34;;;;;;;;;21.25;19.75;;;;;;;;5102680;27;61771;-77
2022/09/23 05:09:00;;;;;;;;;25.25;21.00;;;;;;;;5102329;27;62093;-76
2022/09/23 05:11:27;;;;;;;;;25.00;18.00;;;;;;;;5103267;27;62535;-76
2022/09/23 05:13:53;;;;;;;;;19.50;18.50;;;;;;;;5102203;27;61955;-77
2022/09/23 05:16:19;;;;;;;;;16.75;16.25;;;;;;;;5101996;27;61805;-78
2022/09/23 05:18:45;;;;;;;;;17.50;14.50;;;;;;;;5102814;27;61886;-78
2022/09/23 05:21:11;;;;;;;;;18.25;15.50;;;;;;;;5102221;27;61761;-77
2022/09/23 05:23:37;;;;;;;;;19.50;15.00;;;;;;;;5102480;27;61746;-78
2022/09/23 05:26:04;;;;;;;;;24.00;20.50;;;;;;;;5101890;27;61779;-77
2022/09/23 05:28:31;;;;;;;;;25.50;19.50;;;;;;;;5101300;27;64922;-78
2022/09/23 05:31:01;;;;;;;;;19.25;18.00;;;;;;;;5101973;27;61796;-76
2022/09/23 05:33:27;;;;;;;;;18.50;16.50;;;;;;;;5103403;27;61692;-77
2022/09/23 05:35:52;;;;;;;;;18.00;16.00;;;;;;;;5102204;27;62271;-77
2022/09/23 05:38:17;;;;;;;;;17.00;14.50;;;;;;;;5101119;27;63466;-77
2022/09/23 05:40:42;;;;;;;;;20.00;15.50;;;;;;;;5100426;27;61877;-77
2022/09/23 05:43:08;;;;;;;;;15.25;13.75;;;;;;;;5101828;27;61937;-76
2022/09/23 05:45:34;;;;;;;;;14.00;13.50;;;;;;;;5100954;27;61871;-80
2022/09/23 05:47:59;;;;;;;;;22.50;17.50;;;;;;;;5100774;27;63992;-77
2022/09/23 05:50:25;;;;;;;;;16.75;14.00;;;;;;;;5101010;27;61785;-76
2022/09/23 05:52:51;;;;;;;;;20.50;16.00;;;;;;;;5101815;27;61927;-77
2022/09/23 05:55:16;;;;;;;;;19.50;17.50;;;;;;;;5100463;27;61799;-76
2022/09/23 05:57:41;;;;;;;;;16.50;14.25;;;;;;;;5100356;27;63704;-77
2022/09/23 06:00:07;;;;;;;;;18.75;16.25;;;;;;;;5100745;27;62061;-77
2022/09/23 06:02:32;;;;;;;;;18.75;16.50;;;;;;;;5101393;27;61883;-77
2022/09/23 06:04:57;;;;;;;;;17.25;14.25;;;;;;;;5102554;27;61832;-77
2022/09/23 06:07:23;;;;;;;;;19.75;17.00;;;;;;;;5101909;27;62120;-77
2022/09/23 06:09:49;;;;;;;;;16.00;14.75;;;;;;;;5100608;27;61829;-77
2022/09/23 06:12:14;;;;;;;;;12.75;12.75;;;;;;;;5101000;27;61827;-77
2022/09/23 06:14:39;;;;;;;;;17.50;15.00;;;;;;;;5102717;27;61850;-79
2022/09/23 06:17:05;;;;;;;;;17.75;12.25;;;;;;;;5100454;27;65043;-79
2022/09/23 06:19:30;;;;;;;;;14.00;11.50;;;;;;;;5102206;27;61908;-79
2022/09/23 06:21:55;;;;;;;;;14.25;14.25;;;;;;;;5101180;27;61873;-79
2022/09/23 06:24:21;;;;;;;;;21.00;19.25;;;;;;;;5099941;27;61941;-79
2022/09/23 06:26:46;;;;;;;;;16.00;15.75;;;;;;;;5101889;27;61903;-79
2022/09/23 06:29:11;;;;;;;;;10.50;10.00;;;;;;;;5104020;27;61980;-79
2022/09/23 06:31:39;;;;;;;;;19.50;14.00;;;;;;;;5104464;27;61981;-79
2022/09/23 06:34:04;;;;;;;;;15.00;11.00;;;;;;;;5105429;27;61871;-75
2022/09/23 06:36:29;;;;;;;;;15.50;10.50;;;;;;;;5103378;27;63711;-75
2022/09/23 06:38:55;;;;;;;;;17.50;16.50;;;;;;;;5104799;27;61848;-74
2022/09/23 06:41:20;;;;;;;;;19.25;11.50;;;;;;;;5105886;27;61691;-76
2022/09/23 06:43:46;;;;;;;;;14.50;11.75;;;;;;;;5105926;27;61892;-76
2022/09/23 06:46:12;;;;;;;;;19.00;15.50;;;;;;;;5104688;27;61786;-75
2022/09/23 06:48:39;;;;;;;;;15.75;13.25;;;;;;;;5103944;27;61940;-75
2022/09/23 06:51:06;;;;;;;;;19.75;13.75;;;;;;;;5105490;27;61719;-75
2022/09/23 06:53:31;;;;;;;;;19.00;17.25;;;;;;;;5104375;27;61945;-76
2022/09/23 06:56:01;;;;;;;;;13.75;12.75;;;;;;;;5103046;27;64710;-76
2022/09/23 06:58:26;;;;;;;;;16.50;14.50;;;;;;;;5105069;27;61918;-75
2022/09/23 07:00:52;;;;;;;;;17.00;13.25;;;;;;;;5103947;27;62125;-76
2022/09/23 07:03:18;;;;;;;;;21.75;14.75;;;;;;;;5105510;27;61903;-76
2022/09/23 07:05:43;;;;;;;;;18.75;16.50;;;;;;;;5104660;27;62027;-75
2022/09/23 07:08:08;;;;;;;;;17.50;15.75;;;;;;;;5104673;27;61943;-76
2022/09/23 07:10:34;;;;;;;;;17.50;15.50;;;;;;;;5104888;27;61902;-75
2022/09/23 07:13:03;;;;;;;;;18.50;12.00;;;;;;;;5103923;27;62096;-76
2022/09/23 07:15:29;;;;;;;;;16.50;14.00;;;;;;;;5102986;27;63802;-75
2022/09/23 07:17:54;;;;;;;;;20.75;15.75;;;;;;;;5105056;27;61866;-76
2022/09/23 07:20:19;;;;;;;;;19.75;16.00;;;;;;;;5104694;27;61931;-75
2022/09/23 07:22:51;;;;;;;;;22.00;18.50;;;;;;;;5103542;27;61969;-76
2022/09/23 07:25:17;;;;;;;;;19.25;18.25;;;;;;;;5103788;27;61740;-76
2022/09/23 07:27:42;;;;;;;;;17.50;17.50;;;;;;;;5103722;27;62260;-75
2022/09/23 07:30:08;;;;;;;;;19.00;15.25;;;;;;;;5104856;27;61844;-75
2022/09/23 07:32:33;;;;;;;;;19.50;18.25;;;;;;;;5104820;27;61694;-75
2022/09/23 07:34:58;;;;;;;;;19.25;18.00;;;;;;;;5102642;27;63548;-75
2022/09/23 07:37:23;;;;;;;;;25.00;20.50;;;;;;;;5104294;27;62111;-76
2022/09/23 07:39:49;;;;;;;;;20.50;19.00;;;;;;;;5104481;27;61965;-76
2022/09/23 07:42:15;;;;;;;;;18.25;16.50;;;;;;;;5103519;27;62166;-76
2022/09/23 07:44:45;;;;;;;;;16.25;13.75;;;;;;;;5102728;27;63784;-76
2022/09/23 07:47:10;;;;;;;;;25.75;16.50;;;;;;;;5104698;27;61712;-75
2022/09/23 07:49:36;;;;;;;;;26.25;21.25;;;;;;;;5104399;27;62125;-75
2022/09/23 07:52:01;;;;;;;;;21.50;20.00;;;;;;;;5104719;27;61979;-75
2022/09/23 07:54:28;;;;;;;;;18.75;13.75;;;;;;;;5101560;27;63670;-75
2022/09/23 07:56:53;;;;;;;;;22.50;20.25;;;;;;;;5104198;27;62007;-76
2022/09/23 07:59:19;;;;;;;;;19.25;17.00;;;;;;;;5104350;27;61851;-76
2022/09/23 08:01:46;;;;;;;;;18.75;18.00;;;;;;;;5104653;27;62047;-74
2022/09/23 08:04:12;;;;;;;;;21.25;17.50;;;;;;;;5103800;27;62768;-75
2022/09/23 08:06:41;;;;;;;;;22.50;19.75;;;;;;;;5104092;27;61726;-76
2022/09/23 08:09:07;;;;;;;;;23.00;16.50;;;;;;;;5103903;27;61674;-76
2022/09/23 08:11:32;;;;;;;;;30.00;18.25;;;;;;;;5102862;27;61760;-76
2022/09/23 08:13:57;;;;;;;;;20.00;17.50;;;;;;;;5103708;27;63076;-76
2022/09/23 08:16:23;;;;;;;;;19.00;18.25;;;;;;;;5104164;27;61712;-77
2022/09/23 08:18:48;;;;;;;;;27.50;21.50;;;;;;;;5104128;27;61675;-77
2022/09/23 08:21:18;;;;;;;;;21.50;20.00;;;;;;;;5103750;27;61687;-77
2022/09/23 08:23:43;;;;;;;;;20.00;17.50;;;;;;;;5101587;27;63756;-77
2022/09/23 08:26:08;;;;;;;;;25.00;17.75;;;;;;;;5103969;27;61877;-77
2022/09/23 08:28:34;;;;;;;;;21.00;19.00;;;;;;;;5102593;27;61978;-77
2022/09/23 08:30:59;;;;;;;;;26.00;20.25;;;;;;;;5102497;27;61816;-77
2022/09/23 08:33:24;;;;;;;;;18.50;18.25;;;;;;;;5103266;27;61925;-77
2022/09/23 08:35:51;;;;;;;;;29.25;21.50;;;;;;;;5094762;27;61974;-77
2022/09/23 08:38:16;;;;;;;;;20.50;17.00;;;;;;;;5083457;28;62093;-77
2022/09/23 08:40:43;;;;;;;;;20.50;15.75;;;;;;;;5083118;28;61969;-77
2022/09/23 08:43:27;;;;;;;;;24.75;19.50;;;;;;;;5081346;28;63743;-77
2022/09/23 08:45:54;;;;;;;;;19.75;16.25;;;;;;;;5082041;28;61816;-77
2022/09/23 08:48:31;;;;;;;;;22.00;19.00;;;;;;;;5081794;28;61994;-77
2022/09/23 08:51:00;;;;;;;;;15.00;15.00;;;;;;;;5081359;28;61970;-77
2022/09/23 08:53:32;;;;;;;;;21.50;18.75;;;;;;;;5088373;27;61878;-77
2022/09/23 08:55:58;;;;;;;;;24.00;17.00;;;;;;;;5101508;27;61848;-77
2022/09/23 08:58:33;;;;;;;;;19.50;18.00;;;;;;;;5102171;27;61876;-77
2022/09/23 09:01:21;;;;;;;;;19.25;14.75;;;;;;;;5103554;27;63155;-77
2022/09/23 09:03:54;;;;;;;;;15.50;13.50;;;;;;;;5097437;27;65358;-77
2022/09/23 09:06:29;;;;;;;;;12.00;12.00;;;;;;;;5098814;27;61850;-77
2022/09/23 09:08:57;;;;;;;;;13.00;12.00;;;;;;;;5098099;27;61781;-77
2022/09/23 09:11:27;;;;;;;;;14.50;14.00;;;;;;;;5098607;27;61930;-77
2022/09/23 09:13:59;;;;;;;;;13.50;12.25;;;;;;;;5082098;28;62845;-77
2022/09/23 09:16:25;;;;;;;;;13.00;10.50;;;;;;;;5083005;28;62187;-77
2022/09/23 09:18:52;;;;;;;;;12.50;8.25;;;;;;;;5097639;27;61780;-77
2022/09/23 09:21:22;;;;;;;;;13.25;9.50;;;;;;;;5083096;28;62024;-77
2022/09/23 09:23:52;;;;;;;;;9.75;9.75;;;;;;;;5081383;28;62163;-77
2022/09/23 09:26:22;;;;;;;;;9.75;8.75;;;;;;;;5098309;27;61807;-77
2022/09/23 09:28:55;;;;;;;;;8.75;8.50;;;;;;;;5097944;27;62095;-77
2022/09/23 09:31:29;;;;;;;;;9.50;9.00;;;;;;;;5083059;27;61755;-77
2022/09/23 09:34:05;;;;;;;;;9.50;9.00;;;;;;;;5081293;28;61809;-77
2022/09/23 09:36:42;;;;;;;;;7.00;5.75;;;;;;;;5096952;27;61779;-77
2022/09/23 09:39:12;;;;;;;;;11.00;8.00;;;;;;;;5102158;27;61884;-77
2022/09/23 09:41:39;;;;;;;;;8.75;6.50;;;;;;;;5103233;27;62125;-77
2022/09/23 09:44:08;;;;;;;;;9.50;8.50;;;;;;;;5100441;27;63933;-77
2022/09/23 09:46:46;;;;;;;;;11.25;7.25;;;;;;;;5101461;27;61889;-77
2022/09/23 09:49:33;;;;;;;;;10.00;7.00;;;;;;;;5101257;27;62191;-78
2022/09/23 09:52:11;;;;;;;;;9.50;7.25;;;;;;;;5101522;27;61839;-77
2022/09/23 09:54:37;;;;;;;;;9.75;8.00;;;;;;;;5099632;27;64692;-77
2022/09/23 09:57:04;;;;;;;;;6.25;6.25;;;;;;;;5100937;27;62033;-77
2022/09/23 09:59:29;;;;;;;;;8.75;7.00;;;;;;;;5101221;27;61994;-78
2022/09/23 10:02:21;;;;;;;;;11.50;8.50;;;;;;;;5101287;27;62220;-77
2022/09/23 10:04:52;;;;;;;;;11.25;7.50;;;;;;;;5104505;27;63109;-77
2022/09/23 10:07:23;;;;;;;;;13.00;7.00;;;;;;;;5104917;27;61736;-77
2022/09/23 10:09:49;;;;;;;;;11.00;7.00;;;;;;;;5105815;27;61857;-77
2022/09/23 10:12:17;;;;;;;;;9.50;8.00;;;;;;;;5106382;27;62090;-77
2022/09/23 10:14:43;;;;;;;;;12.00;8.25;;;;;;;;5105593;27;62043;-77
2022/09/23 10:17:18;;;;;;;;;9.00;7.25;;;;;;;;5105552;27;61983;-77
2022/09/23 10:19:46;;;;;;;;;13.50;7.75;;;;;;;;5105989;27;61986;-77
2022/09/23 10:22:23;;;;;;;;;9.75;6.75;;;;;;;;5106128;27;61743;-77
2022/09/23 10:24:52;;;;;;;;;8.50;6.75;;;;;;;;5104832;27;61899;-77
2022/09/23 10:27:25;;;;;;;;;10.00;6.75;;;;;;;;5104215;27;61916;-77
2022/09/23 10:29:54;;;;;;;;;12.25;10.75;;;;;;;;5104256;27;61939;-77
2022/09/23 10:32:22;;;;;;;;;8.25;7.25;;;;;;;;5104621;27;62192;-76
2022/09/23 10:34:50;;;;;;;;;10.25;8.25;;;;;;;;5105013;27;63101;-76
2022/09/23 10:37:39;;;;;;;;;12.00;8.00;;;;;;;;5083520;28;61725;-76
2022/09/23 10:48:37;;;;;;;;;9.50;6.25;;;;;;;;5085256;28;61933;-76
2022/09/23 10:51:22;;;;;;;;;8.00;7.00;;;;;;;;5084844;28;61932;-76
2022/09/23 10:54:09;;;;;;;;;10.25;9.00;;;;;;;;5094080;27;61903;-76
2022/09/23 10:56:41;;;;;;;;;10.50;6.50;;;;;;;;5105492;27;61921;-77
2022/09/23 10:59:18;;;;;;;;;7.25;6.25;;;;;;;;5103370;27;61956;-74
2022/09/23 11:02:08;;;;;;;;;6.75;6.75;;;;;;;;5104131;27;61897;-76
2022/09/23 11:04:34;;;;;;;;;7.50;6.75;;;;;;;;5105579;27;61744;-78
2022/09/23 11:07:06;;;;;;;;;10.75;5.50;;;;;;;;5104760;27;62054;-77
2022/09/23 11:09:39;;;;;;;;;20.75;16.00;;;;;;;;5104629;27;61749;-77
2022/09/23 11:12:23;;;;;;;;;6.75;6.75;;;;;;;;5103660;27;62006;-78
2022/09/23 11:14:54;;;;;;;;;8.75;7.75;;;;;;;;5103199;27;61851;-77
2022/09/23 11:17:24;;;;;;;;;6.25;6.00;;;;;;;;5104181;27;61928;-78
2022/09/23 11:20:25;;;;;;;;;5.75;5.75;;;;;;;;5103459;27;61881;-77
2022/09/23 11:23:05;;;;;;;;;5.50;5.50;;;;;;;;5082097;28;61864;-77
2022/09/23 11:25:31;;;;;;;;;6.75;5.00;;;;;;;;5064246;28;62194;-77
2022/09/23 11:28:16;;;;;;;;;6.50;5.25;;;;;;;;5064220;28;63886;-77
2022/09/23 11:30:57;;;;;;;;;6.75;5.00;;;;;;;;5064678;28;61952;-76
2022/09/23 11:33:52;;;;;;;;;4.00;4.00;;;;;;;;5081546;28;61902;-76
2022/09/23 11:36:20;;;;;;;;;6.00;4.75;;;;;;;;5068444;27;61931;-76
2022/09/23 11:38:48;;;;;;;;;7.00;4.25;;;;;;;;5063329;28;64026;-72
2022/09/23 11:41:17;;;;;;;;;7.00;5.25;;;;;;;;5077530;28;61819;-74
2022/09/23 11:43:46;;;;;;;;;5.00;5.00;;;;;;;;5062932;28;62111;-74
2022/09/23 11:46:31;;;;;;;;;6.00;4.33;;;;;;;;5080294;28;61888;-74
2022/09/23 11:49:19;;;;;;;;;7.67;5.00;;;;;;;;5077010;28;61918;-74
2022/09/23 11:52:04;;;;;;;;;6.75;6.75;;;;;;;;5062228;28;61756;-74
2022/09/23 11:54:48;;;;;;;;;7.25;6.25;;;;;;;;5084726;27;62111;-76
2022/09/23 11:57:22;;;;;;;;;5.75;5.75;;;;;;;;5086398;27;61854;-76
2022/09/23 12:00:08;;;;;;;;;9.00;5.00;;;;;;;;5101867;27;62008;-76
2022/09/23 12:02:54;;;;;;;;;8.25;5.75;;;;;;;;5085714;27;62180;-76
2022/09/23 12:05:26;;;;;;;;;6.25;4.50;;;;;;;;5100876;27;61978;-76
2022/09/23 12:08:09;;;;;;;;;4.75;4.75;;;;;;;;5102849;27;61820;-76
2022/09/23 12:10:44;;;;;;;;;8.00;6.50;;;;;;;;5100341;27;63334;-76
2022/09/23 12:13:16;;;;;;;;;7.75;5.75;;;;;;;;5101102;27;61836;-76
2022/09/23 12:16:11;;;;;;;;;5.00;5.00;;;;;;;;5093316;27;62462;-74
2022/09/23 12:18:57;;;;;;;;;6.00;5.00;;;;;;;;5018806;28;62057;-76
2022/09/23 12:21:39;;;;;;;;;5.25;5.00;;;;;;;;5008765;28;61884;-77
2022/09/23 12:24:23;;;;;;;;;2.50;2.50;;;;;;;;5007836;28;61795;-74
2022/09/23 12:26:55;;;;;;;;;7.50;4.25;;;;;;;;4997927;28;61693;-74
2022/09/23 12:29:22;;;;;;;;;5.50;4.75;;;;;;;;5008941;28;62239;-74
2022/09/23 12:31:48;;;;;;;;;5.50;5.50;;;;;;;;4999288;28;63576;-74
2022/09/23 12:34:50;;;;;;;;;7.25;6.00;;;;;;;;4984819;28;61981;-77
2022/09/23 12:37:36;;;;;;;;;5.00;5.00;;;;;;;;4921835;28;62003;-74
2022/09/23 12:40:18;;;;;;;;;6.00;6.00;;;;;;;;4918703;28;61962;-74
2022/09/23 12:42:45;;;;;;;;;6.75;6.75;;;;;;;;4920401;28;63505;-73
2022/09/23 12:45:33;;;;;;;;;8.00;5.00;;;;;;;;4920414;28;61991;-73
2022/09/23 12:47:59;;;;;;;;;6.50;6.25;;;;;;;;4921226;28;62217;-73
2022/09/23 12:50:43;;;;;;;;;10.25;6.00;;;;;;;;4921352;28;62229;-73
2022/09/23 12:53:27;;;;;;;;;7.00;6.00;;;;;;;;4922243;28;63622;-74
2022/09/23 12:55:54;;;;;;;;;6.00;4.67;;;;;;;;4969448;28;62259;-73
2022/09/23 12:58:45;;;;;;;;;5.00;5.00;;;;;;;;5011881;28;62185;-74
2022/09/23 13:01:13;;;;;;;;;5.75;4.75;;;;;;;;5003350;28;62124;-73
2022/09/23 13:06:49;;;;;;;;;7.00;5.75;;;;;;;;5020345;28;62001;-74
2022/09/23 13:09:29;;;;;;;;;3.67;2.67;;;;;;;;5016645;28;61912;-75
2022/09/23 13:12:07;;;;;;;;;6.75;4.25;;;;;;;;5080522;27;62206;-74
2022/09/23 13:14:52;;;;;;;;;5.00;4.33;;;;;;;;5099975;27;61832;-75
2022/09/23 13:17:37;;;;;;;;;7.67;5.00;;;;;;;;5096081;27;62030;-75
2022/09/23 13:20:25;;;;;;;;;3.00;3.00;;;;;;;;5101432;27;62218;-75
2022/09/23 13:22:50;;;;;;;;;6.67;5.00;;;;;;;;5100017;27;61885;-75
2022/09/23 13:25:24;;;;;;;;;4.33;3.00;;;;;;;;5097955;27;63712;-75
2022/09/23 13:27:52;;;;;;;;;3.33;3.33;;;;;;;;5101507;27;61872;-75
2022/09/23 13:30:19;;;;;;;;;5.00;5.00;;;;;;;;5100567;27;62122;-75
2022/09/23 13:32:47;;;;;;;;;5.00;3.67;;;;;;;;5100852;27;61761;-75
2022/09/23 13:35:12;;;;;;;;;6.00;4.33;;;;;;;;5100517;27;61846;-74
2022/09/23 13:37:47;;;;;;;;;6.00;5.00;;;;;;;;5100792;27;61821;-74
2022/09/23 13:40:19;;;;;;;;;7.00;5.00;;;;;;;;5099136;27;61851;-75
2022/09/23 13:42:48;;;;;;;;;7.00;5.33;;;;;;;;5101700;27;61825;-74
2022/09/23 13:45:17;;;;;;;;;5.00;3.00;;;;;;;;5098196;27;62712;-75
2022/09/23 13:47:44;;;;;;;;;7.75;7.50;;;;;;;;5100876;27;61952;-74
2022/09/23 13:50:17;;;;;;;;;6.75;5.75;;;;;;;;5100821;27;61706;-75
2022/09/23 13:52:44;;;;;;;;;5.33;3.67;;;;;;;;5100587;27;61838;-76
2022/09/23 13:55:28;;;;;;;;;6.75;4.50;;;;;;;;5100000;27;64105;-75
2022/09/23 13:58:11;;;;;;;;;7.33;4.00;;;;;;;;5099229;27;61804;-75
2022/09/23 14:00:36;;;;;;;;;4.75;4.75;;;;;;;;5099032;27;61854;-75
2022/09/23 14:03:17;;;;;;;;;4.00;4.00;;;;;;;;5100032;27;61784;-75
2022/09/23 14:05:43;;;;;;;;;6.50;5.00;;;;;;;;5098169;27;63938;-74
2022/09/23 14:08:08;;;;;;;;;4.75;4.75;;;;;;;;5099184;27;62025;-75
2022/09/23 14:10:34;;;;;;;;;7.00;4.00;;;;;;;;5099161;27;61883;-75
2022/09/23 14:13:00;;;;;;;;;5.33;5.33;;;;;;;;5100673;27;62171;-75
2022/09/23 14:15:25;;;;;;;;;5.33;5.00;;;;;;;;5099749;27;63253;-75
2022/09/23 14:18:02;;;;;;;;;7.00;5.00;;;;;;;;5100492;27;62036;-75
2022/09/23 14:20:28;;;;;;;;;4.00;4.00;;;;;;;;5096650;27;61860;-75
2022/09/23 14:23:10;;;;;;;;;6.00;3.67;;;;;;;;5100929;27;61936;-81
2022/09/23 14:25:37;;;;;;;;;7.33;6.00;;;;;;;;5098495;27;62086;-81
2022/09/23 14:28:03;;;;;;;;;6.33;6.33;;;;;;;;5098767;27;62036;-79
2022/09/23 14:30:29;;;;;;;;;5.67;3.67;;;;;;;;5098221;27;61999;-80
2022/09/23 14:32:54;;;;;;;;;6.00;6.00;;;;;;;;5098922;27;62176;-80
2022/09/23 14:35:24;;;;;;;;;6.50;5.00;;;;;;;;5098361;27;63774;-80
2022/09/23 14:40:37;;;;;;;;;5.50;4.75;;;;;;;;5099493;27;61886;-80
2022/09/23 14:43:22;;;;;;;;;5.00;5.00;;;;;;;;5098720;27;61696;-80
2022/09/23 14:45:50;;;;;;;;;7.75;5.25;;;;;;;;5098362;27;62078;-81
2022/09/23 14:48:17;;;;;;;;;4.00;4.00;;;;;;;;5095908;27;61903;-81
2022/09/23 14:50:47;;;;;;;;;5.00;4.00;;;;;;;;5100515;27;61907;-77
2022/09/23 14:53:22;;;;;;;;;8.75;5.50;;;;;;;;5102697;27;62209;-79
2022/09/23 14:55:52;;;;;;;;;4.75;4.75;;;;;;;;5101017;27;62688;-79
2022/09/23 14:58:18;;;;;;;;;5.25;3.75;;;;;;;;5102525;27;61879;-79
2022/09/23 15:00:57;;;;;;;;;12.50;6.25;;;;;;;;5101558;27;61903;-79
2022/09/23 15:03:22;;;;;;;;;5.25;5.00;;;;;;;;5099981;27;61713;-79